Time;durP1;ratioP1;P1;durP2;ratioP2;P2;SDS_P1;SDS_P2;PMS_P1;PMS_P2;Temp;Humidity;BMP_temperature;BMP_pressure;BME280_temperature;BME280_humidity;BME280_pressure;Samples;Min_cycle;Max_cycle;Signal;HPM_P1;HPM_P2
2022/08/21 00:02:23;;;;;;;4.10;1.33;;;;;;;25.61;53.09;94529.16;5040507;28;20199;-64
2022/08/21 00:04:50;;;;;;;0.80;0.80;;;;;;;25.82;52.78;94540.25;5046082;28;20307;-61
2022/08/21 00:07:24;;;;;;;3.30;1.87;;;;;;;25.79;52.61;94535.56;5066321;28;20192;-65
2022/08/21 00:09:53;;;;;;;0.67;0.67;;;;;;;25.96;52.33;94529.72;5069057;28;20194;-64
2022/08/21 00:12:22;;;;;;;1.50;1.40;;;;;;;25.89;52.20;94524.25;5051979;28;20204;-61
2022/08/21 00:14:49;;;;;;;0.50;0.50;;;;;;;25.90;51.57;94520.41;5049339;28;20224;-62
2022/08/21 00:17:22;;;;;;;1.00;0.87;;;;;;;25.03;54.44;94534.63;5038244;28;20223;-65
2022/08/21 00:19:49;;;;;;;0.20;0.20;;;;;;;24.27;57.27;94542.56;5059609;28;20654;-62
2022/08/21 00:22:17;;;;;;;1.53;0.80;;;;;;;24.68;56.16;94528.53;5063938;28;20706;-64
2022/08/21 00:24:44;;;;;;;0.37;0.37;;;;;;;25.12;54.94;94528.25;5060760;28;20200;-65
2022/08/21 00:27:11;;;;;;;1.50;1.33;;;;;;;25.16;55.42;94529.88;5035098;28;20201;-63
2022/08/21 00:29:37;;;;;;;6.63;1.33;;;;;;;25.08;54.54;94523.59;5061985;28;20204;-64
2022/08/21 00:32:05;;;;;;;0.60;0.60;;;;;;;25.44;53.84;94513.53;5060520;28;20223;-65
2022/08/21 00:34:32;;;;;;;0.30;0.30;;;;;;;24.95;54.41;94511.50;5064105;28;20265;-64
2022/08/21 00:36:59;;;;;;;1.43;1.17;;;;;;;25.07;54.50;94495.22;5060977;28;20199;-60
2022/08/21 00:39:26;;;;;;;0.40;0.40;;;;;;;25.07;54.11;94511.31;5055785;28;20262;-63
2022/08/21 00:41:53;;;;;;;0.43;0.43;;;;;;;25.31;53.45;94504.09;5043650;28;20324;-63
2022/08/21 00:44:19;;;;;;;0.87;0.87;;;;;;;25.60;52.88;94514.94;5060887;28;20191;-62
2022/08/21 00:46:47;;;;;;;2.73;0.73;;;;;;;24.45;55.78;94514.28;5052433;28;20290;-62
2022/08/21 00:49:14;;;;;;;0.83;0.83;;;;;;;24.84;55.21;94526.59;5051847;28;20197;-62
2022/08/21 00:51:53;;;;;;;1.33;0.57;;;;;;;24.93;55.05;94521.78;5043346;28;20813;-65
2022/08/21 00:54:24;;;;;;;0.40;0.40;;;;;;;25.13;54.45;94535.19;5058983;28;20208;-64
2022/08/21 00:56:56;;;;;;;0.40;0.40;;;;;;;25.39;53.55;94535.28;5040922;28;20197;-61
2022/08/21 00:59:27;;;;;;;2.73;1.53;;;;;;;25.62;52.63;94519.97;5061074;28;20310;-64
2022/08/21 01:01:55;;;;;;;1.03;0.77;;;;;;;25.72;52.19;94514.00;5069885;28;20246;-62
2022/08/21 01:04:22;;;;;;;0.87;0.67;;;;;;;25.66;52.66;94510.06;5051603;28;20306;-64
2022/08/21 01:06:51;;;;;;;1.17;1.17;;;;;;;25.57;53.59;94517.56;5050576;28;20196;-64
2022/08/21 01:09:18;;;;;;;0.60;0.60;;;;;;;25.54;52.74;94497.63;5071966;28;20223;-64
2022/08/21 01:11:46;;;;;;;2.90;1.53;;;;;;;25.62;52.51;94503.88;5046395;28;20656;-63
2022/08/21 01:14:14;;;;;;;4.43;1.23;;;;;;;25.18;53.35;94497.34;5064361;28;20196;-62
2022/08/21 01:16:48;;;;;;;0.40;0.40;;;;;;;25.50;53.17;94496.00;5040274;28;20197;-64
2022/08/21 01:19:16;;;;;;;1.70;1.43;;;;;;;25.55;53.58;94506.44;5035568;28;20203;-65
2022/08/21 01:21:43;;;;;;;0.43;0.43;;;;;;;25.49;53.24;94500.59;5062376;28;20383;-64
2022/08/21 01:24:11;;;;;;;0.73;0.60;;;;;;;25.58;53.21;94497.69;5065800;28;20197;-65
2022/08/21 01:26:39;;;;;;;0.97;0.97;;;;;;;25.31;53.59;94496.81;5049532;28;20705;-63
2022/08/21 01:29:43;;;;;;;1.90;1.07;;;;;;;25.39;54.05;94489.69;5040634;28;20205;-65
2022/08/21 01:32:15;;;;;;;1.90;0.70;;;;;;;25.90;53.14;94488.19;5031190;28;20705;-65
2022/08/21 01:34:44;;;;;;;0.30;0.30;;;;;;;26.04;53.00;94491.13;5064854;28;20220;-64
2022/08/21 01:37:11;;;;;;;1.47;1.20;;;;;;;25.92;52.95;94489.41;5050139;28;20204;-64
2022/08/21 01:39:39;;;;;;;1.90;1.80;;;;;;;25.95;53.26;94495.94;5041185;28;20212;-65
2022/08/21 01:42:08;;;;;;;0.80;0.80;;;;;;;25.78;53.74;94501.84;5050089;28;20480;-62
2022/08/21 01:44:37;;;;;;;0.30;0.30;;;;;;;25.63;53.49;94498.16;5030944;28;20644;-63
2022/08/21 01:47:08;;;;;;;1.60;0.77;;;;;;;25.93;53.22;94503.56;5040266;28;20268;-62
2022/08/21 01:49:37;;;;;;;0.50;0.50;;;;;;;26.05;53.16;94495.34;5050094;28;20291;-62
2022/08/21 01:52:05;;;;;;;0.97;0.93;;;;;;;26.01;53.34;94502.56;5046841;28;20207;-61
2022/08/21 01:54:36;;;;;;;0.30;0.30;;;;;;;25.95;53.07;94485.97;5071079;28;20253;-64
2022/08/21 01:57:04;;;;;;;0.57;0.57;;;;;;;26.13;52.93;94497.00;5042864;28;20582;-62
2022/08/21 01:59:32;;;;;;;0.37;0.37;;;;;;;26.02;52.93;94498.75;5059633;28;20366;-63
2022/08/21 02:01:59;;;;;;;8.27;1.73;;;;;;;25.94;53.21;94513.19;5052471;28;20227;-62
2022/08/21 02:04:26;;;;;;;0.57;0.57;;;;;;;26.02;52.96;94504.88;5054101;28;20299;-61
2022/08/21 02:06:53;;;;;;;0.80;0.80;;;;;;;26.06;53.01;94496.91;5058653;28;20184;-62
2022/08/21 02:09:21;;;;;;;1.60;0.70;;;;;;;26.01;52.53;94499.88;5041430;28;20230;-66
2022/08/21 02:11:51;;;;;;;0.50;0.50;;;;;;;26.12;52.98;94519.63;5070388;28;20196;-63
2022/08/21 02:14:18;;;;;;;1.20;0.97;;;;;;;25.98;52.67;94519.41;5059502;28;20185;-64
2022/08/21 02:16:59;;;;;;;0.70;0.70;;;;;;;26.07;52.57;94519.16;5030147;28;20209;-65
2022/08/21 02:19:37;;;;;;;3.30;1.97;;;;;;;26.04;52.95;94512.59;5030336;28;20193;-65
2022/08/21 02:22:10;;;;;;;1.30;1.20;;;;;;;26.03;52.97;94519.06;5057443;28;20231;-62
2022/08/21 02:24:38;;;;;;;14.60;1.40;;;;;;;25.89;52.96;94514.25;5070010;28;20188;-62
2022/08/21 02:27:24;;;;;;;0.77;0.77;;;;;;;25.97;52.79;94520.50;5070112;28;20195;-63
2022/08/21 02:29:55;;;;;;;1.50;1.40;;;;;;;25.83;52.98;94520.31;5054562;28;20222;-63
2022/08/21 02:32:21;;;;;;;2.03;1.83;;;;;;;25.90;52.70;94531.94;5044354;28;20204;-64
2022/08/21 02:34:49;;;;;;;6.23;1.77;;;;;;;25.02;55.32;94541.09;5056509;28;20310;-63
2022/08/21 02:37:16;;;;;;;1.13;1.00;;;;;;;25.46;54.01;94527.34;5070431;28;20268;-65
2022/08/21 02:39:43;;;;;;;4.67;1.90;;;;;;;25.64;53.69;94529.19;5060926;28;20197;-64
2022/08/21 02:42:10;;;;;;;0.40;0.40;;;;;;;25.83;53.21;94517.63;5040769;28;20718;-67
2022/08/21 02:44:37;;;;;;;4.17;2.90;;;;;;;25.81;53.20;94525.25;5067029;28;20199;-62
2022/08/21 02:47:04;;;;;;;0.60;0.60;;;;;;;25.93;52.57;94522.38;5069590;28;20360;-64
2022/08/21 02:49:30;;;;;;;6.83;1.23;;;;;;;25.83;52.49;94498.84;5066628;28;20200;-65
2022/08/21 02:51:57;;;;;;;0.20;0.20;;;;;;;25.88;52.24;94517.31;5043171;28;20196;-62
2022/08/21 02:54:24;;;;;;;1.83;1.60;;;;;;;25.92;52.72;94526.19;5069917;28;20196;-63
2022/08/21 02:56:51;;;;;;;0.50;0.50;;;;;;;25.84;53.05;94522.63;5039025;28;20205;-59
2022/08/21 02:59:18;;;;;;;0.30;0.30;;;;;;;25.90;52.81;94515.81;5040934;28;20663;-63
2022/08/21 03:01:46;;;;;;;3.97;2.23;;;;;;;25.88;53.03;94517.31;5056697;28;20224;-64
2022/08/21 03:04:13;;;;;;;1.63;0.90;;;;;;;25.91;52.88;94521.97;5049749;28;20218;-65
2022/08/21 03:06:40;;;;;;;0.67;0.67;;;;;;;25.73;53.31;94531.66;5036817;28;20189;-67
2022/08/21 03:09:07;;;;;;;1.30;1.13;;;;;;;25.62;53.35;94531.47;5062463;28;20295;-64
2022/08/21 03:11:35;;;;;;;0.40;0.40;;;;;;;25.83;52.92;94523.00;5060281;28;20195;-63
2022/08/21 03:14:02;;;;;;;0.43;0.43;;;;;;;25.93;52.64;94525.06;5065870;28;20671;-65
2022/08/21 03:16:29;;;;;;;3.03;0.57;;;;;;;25.79;52.64;94524.84;5058882;28;20231;-62
2022/08/21 03:19:00;;;;;;;0.93;0.93;;;;;;;25.74;53.23;94530.50;5064831;28;20269;-66
2022/08/21 03:21:28;;;;;;;0.73;0.73;;;;;;;25.73;53.19;94521.69;5037674;28;20224;-62
2022/08/21 03:23:55;;;;;;;0.57;0.57;;;;;;;25.76;53.29;94531.72;5064408;28;20202;-66
2022/08/21 03:26:22;;;;;;;0.30;0.30;;;;;;;25.85;53.00;94531.47;5055685;28;20197;-66
2022/08/21 03:28:50;;;;;;;0.67;0.67;;;;;;;25.77;53.10;94532.47;5055543;28;20216;-65
2022/08/21 03:31:17;;;;;;;0.80;0.80;;;;;;;25.86;52.82;94535.69;5048410;28;20437;-67
2022/08/21 03:33:44;;;;;;;1.03;0.93;;;;;;;25.74;53.04;94533.19;5060191;28;20294;-63
2022/08/21 03:36:11;;;;;;;0.70;0.70;;;;;;;25.73;52.76;94531.66;5065350;28;20204;-63
2022/08/21 03:38:39;;;;;;;0.90;0.83;;;;;;;25.64;53.56;94533.78;5057567;28;20199;-67
2022/08/21 03:41:06;;;;;;;0.53;0.53;;;;;;;25.78;53.02;94534.03;5068700;28;20208;-67
2022/08/21 03:43:34;;;;;;;1.03;0.57;;;;;;;25.70;53.00;94517.03;5060182;28;20221;-63
2022/08/21 03:46:03;;;;;;;0.27;0.27;;;;;;;25.89;52.70;94533.06;5062799;28;20632;-61
2022/08/21 03:48:30;;;;;;;0.40;0.40;;;;;;;25.95;52.53;94518.19;5055993;28;20211;-64
2022/08/21 03:50:57;;;;;;;0.60;0.60;;;;;;;25.50;53.89;94528.19;5044003;28;20236;-65
2022/08/21 03:53:24;;;;;;;0.87;0.87;;;;;;;25.54;53.32;94516.41;5061915;28;20194;-65
2022/08/21 03:55:52;;;;;;;8.70;1.43;;;;;;;25.69;53.19;94528.16;5041354;28;20201;-64
2022/08/21 03:58:22;;;;;;;0.43;0.43;;;;;;;25.51;53.66;94529.75;5029057;28;20204;-64
2022/08/21 04:00:51;;;;;;;0.83;0.80;;;;;;;25.40;53.88;94542.22;5042097;28;20296;-65
2022/08/21 04:03:19;;;;;;;0.43;0.40;;;;;;;25.20;54.06;94544.09;5069073;28;20731;-64
2022/08/21 04:05:46;;;;;;;0.50;0.50;;;;;;;25.38;53.62;94541.78;5053965;28;20253;-65
2022/08/21 04:08:17;;;;;;;0.87;0.87;;;;;;;25.38;53.59;94547.16;5046077;28;20197;-66
2022/08/21 04:10:48;;;;;;;5.33;2.10;;;;;;;25.41;53.62;94547.22;5049096;28;20486;-62
2022/08/21 04:13:15;;;;;;;0.70;0.70;;;;;;;25.40;53.24;94550.25;5063735;28;20578;-65
2022/08/21 04:15:42;;;;;;;0.67;0.67;;;;;;;25.51;53.02;94551.22;5058374;28;20257;-62
2022/08/21 04:18:09;;;;;;;0.30;0.30;;;;;;;25.18;53.79;94548.28;5073116;28;20295;-61
2022/08/21 04:20:37;;;;;;;0.73;0.73;;;;;;;25.38;53.15;94536.44;5055151;28;20662;-62
2022/08/21 04:23:03;;;;;;;0.90;0.77;;;;;;;25.39;53.21;94537.97;5040462;28;20270;-63
2022/08/21 04:25:30;;;;;;;0.20;0.20;;;;;;;25.58;52.79;94529.88;5051268;28;20703;-64
2022/08/21 04:27:58;;;;;;;1.47;1.10;;;;;;;25.22;53.43;94533.81;5032464;28;20338;-63
2022/08/21 04:30:25;;;;;;;0.33;0.33;;;;;;;25.33;53.55;94544.75;5056822;28;20195;-69
2022/08/21 04:32:56;;;;;;;0.77;0.77;;;;;;;25.54;52.77;94539.75;5058350;28;20200;-62
2022/08/21 04:35:26;;;;;;;1.03;1.03;;;;;;;25.28;53.35;94526.25;5061343;28;20284;-63
2022/08/21 04:37:53;;;;;;;0.40;0.40;;;;;;;25.35;53.62;94537.09;5051168;28;20246;-66
2022/08/21 04:40:23;;;;;;;0.10;0.10;;;;;;;25.49;53.28;94534.72;5052378;28;20638;-64
2022/08/21 04:42:53;;;;;;;1.03;0.90;;;;;;;25.40;53.62;94531.47;5063428;28;20239;-68
2022/08/21 04:45:30;;;;;;;0.63;0.63;;;;;;;25.69;52.80;94530.81;5041456;28;20219;-61
2022/08/21 04:48:00;;;;;;;0.70;0.70;;;;;;;25.46;53.01;94536.19;5065742;28;20226;-63
2022/08/21 04:50:44;;;;;;;0.30;0.30;;;;;;;25.29;53.13;94522.44;5044286;28;20205;-64
2022/08/21 04:53:20;;;;;;;3.13;2.00;;;;;;;25.45;53.32;94544.59;5062718;28;20274;-65
2022/08/21 04:55:47;;;;;;;1.60;1.50;;;;;;;25.19;54.18;94545.25;5044997;28;20203;-63
2022/08/21 04:58:18;;;;;;;0.37;0.37;;;;;;;25.26;53.93;94534.66;5045445;28;20196;-64
2022/08/21 05:00:47;;;;;;;0.97;0.97;;;;;;;25.15;53.95;94535.56;5045407;28;20209;-67
2022/08/21 05:03:16;;;;;;;0.50;0.50;;;;;;;25.37;53.73;94529.47;5042549;28;20661;-65
2022/08/21 05:05:43;;;;;;;2.20;1.20;;;;;;;25.42;53.98;94521.19;5041594;28;20192;-62
2022/08/21 05:08:14;;;;;;;0.57;0.57;;;;;;;25.38;54.56;94539.09;5049805;28;20212;-66
2022/08/21 05:10:42;;;;;;;7.13;1.33;;;;;;;25.58;53.60;94522.56;5061751;28;20553;-67
2022/08/21 05:13:09;;;;;;;40.30;1.53;;;;;;;25.66;53.59;94531.53;5061872;28;20640;-67
2022/08/21 05:15:37;;;;;;;4.90;1.30;;;;;;;25.62;53.67;94536.84;5053348;28;20302;-67
2022/08/21 05:18:04;;;;;;;0.43;0.43;;;;;;;25.81;53.49;94536.00;5035340;28;20228;-67
2022/08/21 05:20:31;;;;;;;6.73;1.50;;;;;;;26.01;52.77;94534.78;5042928;28;20196;-65
2022/08/21 05:22:58;;;;;;;10.60;0.80;;;;;;;26.11;52.34;94528.84;5044433;28;20209;-63
2022/08/21 05:25:26;;;;;;;3.70;1.20;;;;;;;26.14;51.89;94520.03;5030492;28;20205;-63
2022/08/21 05:27:54;;;;;;;1.97;1.27;;;;;;;26.21;51.97;94525.50;5044217;28;20220;-63
2022/08/21 05:30:23;;;;;;;1.23;1.13;;;;;;;26.29;52.11;94529.06;5050420;28;20277;-62
2022/08/21 05:32:57;;;;;;;0.80;0.80;;;;;;;25.49;53.78;94532.03;5070586;28;20642;-63
2022/08/21 05:35:26;;;;;;;1.27;1.17;;;;;;;25.81;52.79;94536.00;5060843;28;20203;-62
2022/08/21 05:37:53;;;;;;;0.40;0.40;;;;;;;26.38;51.48;94530.38;5065939;28;20591;-63
2022/08/21 05:40:21;;;;;;;0.70;0.70;;;;;;;26.60;50.89;94532.19;5055029;28;20201;-63
2022/08/21 05:42:50;;;;;;;1.53;1.13;;;;;;;26.58;51.52;94529.09;5043864;28;20240;-66
2022/08/21 05:45:27;;;;;;;1.33;1.23;;;;;;;26.64;51.90;94527.63;5055891;28;20713;-61
2022/08/21 05:48:22;;;;;;;0.37;0.37;;;;;;;26.95;50.79;94519.19;5048060;28;20211;-62
2022/08/21 05:50:50;;;;;;;1.70;0.67;;;;;;;26.69;52.52;94513.91;5034311;28;20197;-63
2022/08/21 05:53:19;;;;;;;0.30;0.30;;;;;;;26.62;52.31;94518.38;5064991;28;20257;-64
2022/08/21 05:55:47;;;;;;;0.33;0.33;;;;;;;26.84;51.54;94510.22;5052829;28;20189;-63
2022/08/21 05:58:17;;;;;;;0.50;0.50;;;;;;;26.43;53.20;94516.59;5029925;28;20213;-63
2022/08/21 06:00:46;;;;;;;0.40;0.40;;;;;;;26.52;52.08;94519.78;5048390;28;20192;-64
2022/08/21 06:03:22;;;;;;;1.20;0.93;;;;;;;26.84;51.18;94520.97;5061995;28;20223;-62
2022/08/21 06:05:50;;;;;;;4.87;1.30;;;;;;;26.34;52.15;94518.78;5069207;28;20202;-65
2022/08/21 06:08:18;;;;;;;0.43;0.43;;;;;;;27.01;50.85;94519.63;5057759;28;20207;-63
2022/08/21 06:10:47;;;;;;;0.63;0.63;;;;;;;27.09;50.15;94523.19;5046272;28;20193;-65
2022/08/21 06:13:16;;;;;;;0.80;0.57;;;;;;;26.98;50.16;94510.41;5030537;28;20196;-62
2022/08/21 06:15:43;;;;;;;1.43;1.33;;;;;;;26.98;50.47;94513.09;5044398;28;20233;-64
2022/08/21 06:18:10;;;;;;;4.27;1.03;;;;;;;27.19;49.90;94515.22;5039850;28;20258;-61
2022/08/21 06:20:38;;;;;;;0.30;0.30;;;;;;;27.32;49.75;94507.69;5062809;28;20223;-62
2022/08/21 06:23:05;;;;;;;0.60;0.60;;;;;;;27.00;49.91;94516.19;5045923;28;20272;-63
2022/08/21 06:25:32;;;;;;;0.30;0.30;;;;;;;27.21;49.85;94520.25;5056105;28;20708;-62
2022/08/21 06:28:08;;;;;;;1.77;1.67;;;;;;;27.39;49.74;94508.53;5030032;28;20619;-63
2022/08/21 06:30:38;;;;;;;0.50;0.50;;;;;;;26.84;51.90;94512.91;5057284;28;20202;-63
2022/08/21 06:33:06;;;;;;;1.40;0.87;;;;;;;26.68;52.08;94511.53;5041976;28;20192;-62
2022/08/21 06:35:34;;;;;;;0.50;0.50;;;;;;;27.10;51.01;94519.38;5046923;28;20896;-62
2022/08/21 06:38:01;;;;;;;1.07;1.00;;;;;;;27.17;52.14;94506.72;5049582;28;20246;-62
2022/08/21 06:40:29;;;;;;;1.13;0.87;;;;;;;27.19;51.82;94509.84;5042107;28;20195;-63
2022/08/21 06:43:13;;;;;;;3.67;1.80;;;;;;;26.60;52.52;94520.66;5057582;28;20382;-62
2022/08/21 06:45:41;;;;;;;1.80;1.17;;;;;;;26.68;52.52;94523.09;5040381;28;20211;-62
2022/08/21 06:48:08;;;;;;;0.50;0.50;;;;;;;26.88;51.40;94518.31;5068726;28;20196;-62
2022/08/21 06:50:36;;;;;;;1.00;0.90;;;;;;;27.56;50.15;94520.59;5049458;28;20259;-63
2022/08/21 06:53:07;;;;;;;1.03;0.83;;;;;;;27.51;48.96;94526.31;5044188;28;20212;-63
2022/08/21 06:55:35;;;;;;;3.73;1.93;;;;;;;27.67;48.23;94524.16;5043137;28;20197;-64
2022/08/21 06:58:03;;;;;;;1.60;1.50;;;;;;;27.30;49.22;94518.78;5032993;28;20209;-63
2022/08/21 07:00:31;;;;;;;0.60;0.60;;;;;;;27.42;49.01;94528.56;5042020;28;20299;-67
2022/08/21 07:02:58;;;;;;;0.90;0.90;;;;;;;27.59;49.27;94533.34;5033985;28;20231;-65
2022/08/21 07:05:27;;;;;;;4.70;2.10;;;;;;;27.38;48.83;94533.13;5041014;28;20231;-66
2022/08/21 07:07:54;;;;;;;3.87;3.07;;;;;;;27.80;47.65;94522.72;5030872;28;20189;-65
2022/08/21 07:10:21;;;;;;;6.43;3.07;;;;;;;27.98;47.58;94523.66;5035108;28;20201;-65
2022/08/21 07:12:50;;;;;;;5.40;3.10;;;;;;;28.20;47.37;94519.97;5031093;28;20268;-64
2022/08/21 07:15:25;;;;;;;1.30;1.20;;;;;;;27.22;49.46;94519.09;5031489;28;20217;-66
2022/08/21 07:17:52;;;;;;;4.27;3.87;;;;;;;27.90;47.84;94522.81;5032641;28;20194;-66
2022/08/21 07:20:19;;;;;;;3.03;2.67;;;;;;;28.16;46.88;94524.56;5029566;28;20932;-65
2022/08/21 07:22:46;;;;;;;16.43;3.63;;;;;;;28.39;46.57;94527.81;5031502;28;20219;-64
2022/08/21 07:25:13;;;;;;;2.87;2.57;;;;;;;28.32;45.48;94521.59;5029365;28;20289;-64
2022/08/21 07:27:40;;;;;;;1.37;1.07;;;;;;;28.48;45.73;94519.38;5045195;28;20205;-64
2022/08/21 07:30:07;;;;;;;1.80;1.27;;;;;;;28.42;46.50;94527.03;5042414;28;20197;-63
2022/08/21 07:32:34;;;;;;;0.43;0.40;;;;;;;27.88;45.23;94510.88;5032328;28;20189;-64
2022/08/21 07:35:01;;;;;;;0.93;0.50;;;;;;;28.38;46.04;94507.38;5029590;28;20205;-64
2022/08/21 07:37:27;;;;;;;0.20;0.20;;;;;;;28.77;45.07;94511.06;5032454;28;20902;-64
2022/08/21 07:39:54;;;;;;;1.07;1.07;;;;;;;28.23;46.95;94486.88;5029421;28;20339;-63
2022/08/21 07:42:21;;;;;;;0.50;0.50;;;;;;;28.68;45.23;94505.25;5034150;28;20270;-64
2022/08/21 07:44:51;;;;;;;0.97;0.87;;;;;;;29.18;45.41;94497.34;5032492;28;20231;-64
2022/08/21 07:47:22;;;;;;;0.63;0.63;;;;;;;28.43;47.11;94493.53;5031549;28;20630;-63
2022/08/21 07:50:10;;;;;;;0.30;0.30;;;;;;;28.98;46.75;94478.75;5037745;28;20197;-64
2022/08/21 07:52:38;;;;;;;0.30;0.30;;;;;;;29.27;45.76;94486.97;5030181;28;20192;-63
2022/08/21 07:55:06;;;;;;;0.30;0.30;;;;;;;28.96;45.18;94497.25;5031643;28;20290;-64
2022/08/21 07:57:33;;;;;;;0.33;0.33;;;;;;;29.23;45.52;94499.69;5030278;28;20188;-64
2022/08/21 08:00:00;;;;;;;0.30;0.30;;;;;;;29.09;45.35;94494.97;5027349;28;20240;-64
2022/08/21 08:02:38;;;;;;;0.67;0.67;;;;;;;29.37;43.37;94488.91;5031451;28;20215;-65
2022/08/21 08:05:09;;;;;;;0.30;0.30;;;;;;;29.31;42.91;94495.81;5042313;28;20283;-64
2022/08/21 08:07:36;;;;;;;3.37;0.90;;;;;;;28.82;43.05;94486.44;5043187;28;20199;-63
2022/08/21 08:10:06;;;;;;;0.50;0.50;;;;;;;28.98;44.41;94494.16;5040294;28;20183;-63
2022/08/21 08:12:39;;;;;;;0.33;0.33;;;;;;;28.14;45.09;94502.59;5064824;28;20191;-63
2022/08/21 08:15:09;;;;;;;0.43;0.37;;;;;;;28.67;44.37;94498.31;5059320;28;20292;-64
2022/08/21 08:17:38;;;;;;;0.60;0.60;;;;;;;28.73;45.59;94493.31;5033414;28;20220;-63
2022/08/21 08:20:07;;;;;;;1.13;1.03;;;;;;;28.65;45.44;94503.31;5052399;28;21033;-64
2022/08/21 08:22:37;;;;;;;1.47;1.03;;;;;;;28.54;45.56;94491.69;5042110;28;20213;-64
2022/08/21 08:25:06;;;;;;;0.60;0.60;;;;;;;28.95;45.23;94493.03;5046460;28;20224;-64
2022/08/21 08:27:35;;;;;;;0.80;0.70;;;;;;;28.99;45.26;94501.88;5059158;28;20199;-63
2022/08/21 08:30:05;;;;;;;1.27;0.87;;;;;;;28.80;45.04;94502.22;5045852;28;20201;-64
2022/08/21 08:32:32;;;;;;;1.07;0.97;;;;;;;29.35;43.79;94497.38;5038099;28;20203;-63
2022/08/21 08:34:59;;;;;;;13.90;7.40;;;;;;;29.20;44.82;94490.41;5052168;28;20192;-65
2022/08/21 08:37:26;;;;;;;5.03;4.03;;;;;;;28.59;44.18;94499.44;5035483;28;20270;-67
2022/08/21 08:40:01;;;;;;;1.47;1.37;;;;;;;27.31;46.68;94506.94;5063080;28;20278;-65
2022/08/21 08:42:35;;;;;;;1.43;1.17;;;;;;;27.62;46.42;94500.28;5050271;28;20332;-63
2022/08/21 08:45:16;;;;;;;0.63;0.63;;;;;;;28.39;44.74;94494.69;5057068;28;20204;-67
2022/08/21 08:47:49;;;;;;;0.67;0.67;;;;;;;28.52;45.15;94504.78;5047379;28;20196;-66
2022/08/21 08:50:23;;;;;;;1.20;1.17;;;;;;;28.66;43.84;94498.69;5039802;28;20209;-66
2022/08/21 08:53:02;;;;;;;0.30;0.30;;;;;;;28.80;43.95;94498.72;5040529;28;20234;-66
2022/08/21 08:55:39;;;;;;;0.63;0.63;;;;;;;28.93;43.79;94476.44;5030434;28;20929;-69
2022/08/21 08:58:09;;;;;;;3.10;1.17;;;;;;;29.52;43.14;94474.25;5040358;28;20923;-68
2022/08/21 09:00:37;;;;;;;5.37;4.47;;;;;;;29.78;42.90;94479.31;5069047;28;20249;-66
2022/08/21 09:03:04;;;;;;;1.03;1.03;;;;;;;29.73;42.55;94482.38;5059548;28;20288;-64
2022/08/21 09:06:16;;;;;;;1.53;1.43;;;;;;;29.70;42.92;94485.88;5050533;28;20192;-65
2022/08/21 09:09:00;;;;;;;3.10;1.77;;;;;;;29.84;42.16;94480.44;5066483;28;20666;-66
2022/08/21 09:11:36;;;;;;;1.10;1.03;;;;;;;29.85;41.48;94473.91;5054678;28;20200;-65
2022/08/21 09:14:36;;;;;;;0.63;0.63;;;;;;;29.94;40.92;94475.03;5045364;28;20207;-66
2022/08/21 09:17:39;;;;;;;1.60;1.07;;;;;;;29.80;41.62;94474.28;5030427;28;20205;-66
2022/08/21 09:20:21;;;;;;;0.40;0.40;;;;;;;29.98;41.83;94468.88;5070041;28;20257;-67
2022/08/21 09:23:29;;;;;;;2.63;1.07;;;;;;;30.19;41.21;94464.19;5050453;28;20846;-66
2022/08/21 09:26:00;;;;;;;1.60;1.50;;;;;;;30.26;41.73;94460.72;5048773;28;20201;-64
2022/08/21 09:28:32;;;;;;;0.37;0.37;;;;;;;30.22;41.80;94452.59;5030005;28;20660;-67
2022/08/21 09:31:03;;;;;;;1.00;0.97;;;;;;;30.32;41.33;94451.06;5030001;28;20204;-66
2022/08/21 09:33:29;;;;;;;1.07;1.07;;;;;;;30.66;41.50;94455.56;5029928;28;20201;-65
2022/08/21 09:35:59;;;;;;;0.47;0.47;;;;;;;29.78;43.42;94455.00;5058510;28;20223;-65
2022/08/21 09:38:33;;;;;;;0.43;0.43;;;;;;;29.41;44.41;94466.16;5029066;28;20208;-66
2022/08/21 09:41:04;;;;;;;0.60;0.60;;;;;;;30.44;41.99;94448.69;5063269;28;20203;-65
2022/08/21 09:43:33;;;;;;;0.57;0.57;;;;;;;30.85;41.09;94457.84;5049442;28;20263;-66
2022/08/21 09:46:20;;;;;;;0.30;0.30;;;;;;;30.99;40.76;94461.63;5035482;28;20334;-67
2022/08/21 09:48:50;;;;;;;0.60;0.60;;;;;;;30.70;40.46;94456.34;5062928;28;20697;-65
2022/08/21 09:51:21;;;;;;;0.87;0.87;;;;;;;30.97;39.97;94453.16;5030628;28;20201;-66
2022/08/21 09:53:53;;;;;;;0.37;0.37;;;;;;;31.10;40.00;94446.09;5057592;28;20175;-66
2022/08/21 09:59:33;;;;;;;0.50;0.50;;;;;;;30.41;41.00;94446.78;5029189;28;20205;-69
2022/08/21 10:02:30;;;;;;;0.53;0.53;;;;;;;30.22;39.93;94441.78;5066270;28;20295;-67
2022/08/21 10:05:02;;;;;;;2.40;1.67;;;;;;;29.91;41.08;94440.69;5056271;28;20199;-69
2022/08/21 10:07:31;;;;;;;2.87;1.63;;;;;;;29.73;40.87;94441.88;5049549;28;20227;-69
2022/08/21 10:10:05;;;;;;;0.27;0.27;;;;;;;29.91;40.12;94439.91;5061562;28;20184;-67
2022/08/21 10:12:44;;;;;;;0.70;0.53;;;;;;;30.12;39.91;94431.78;5036209;28;20207;-67
2022/08/21 10:15:37;;;;;;;0.30;0.30;;;;;;;30.30;39.50;94427.13;5049251;28;20654;-67
2022/08/21 10:18:18;;;;;;;0.50;0.50;;;;;;;30.65;39.14;94432.41;5040377;28;20205;-66
2022/08/21 10:21:04;;;;;;;2.27;1.23;;;;;;;30.60;39.54;94427.38;5061419;28;20720;-66
2022/08/21 10:23:55;;;;;;;0.73;0.57;;;;;;;30.94;39.02;94419.53;5044625;28;20316;-67
2022/08/21 10:26:22;;;;;;;2.43;2.23;;;;;;;30.99;38.73;94424.50;5036057;28;20228;-66
2022/08/21 10:29:08;;;;;;;7.33;4.73;;;;;;;31.04;39.11;94421.38;5056493;28;20192;-73
2022/08/21 10:31:43;;;;;;;1.13;1.13;;;;;;;31.16;39.19;94422.88;5045005;28;20192;-66
2022/08/21 10:34:24;;;;;;;4.33;1.87;;;;;;;31.29;38.49;94413.13;5051896;28;20226;-66
2022/08/21 10:37:06;;;;;;;0.60;0.60;;;;;;;31.16;39.81;94417.44;5049164;28;20644;-66
2022/08/21 10:39:54;;;;;;;1.50;1.40;;;;;;;31.16;40.47;94412.03;5065482;28;20204;-67
2022/08/21 10:42:52;;;;;;;2.43;1.90;;;;;;;31.35;40.03;94409.59;5051413;28;20302;-65
2022/08/21 10:45:41;;;;;;;0.77;0.77;;;;;;;31.04;38.98;94407.09;5051808;28;20242;-65
2022/08/21 10:48:19;;;;;;;1.50;1.37;;;;;;;31.31;39.57;94398.03;5056429;28;20204;-66
2022/08/21 10:51:06;;;;;;;2.13;1.93;;;;;;;31.32;38.81;94404.19;5028920;28;20207;-65
2022/08/21 10:53:40;;;;;;;1.10;1.03;;;;;;;31.14;39.26;94398.91;5062506;28;20729;-69
2022/08/21 10:56:22;;;;;;;0.77;0.77;;;;;;;31.18;39.50;94404.28;5041677;28;20200;-67
2022/08/21 10:59:17;;;;;;;3.53;3.23;;;;;;;30.75;39.08;94393.69;5046419;28;20188;-65
2022/08/21 11:01:57;;;;;;;1.10;1.10;;;;;;;31.25;39.40;94390.69;5048776;28;20200;-65
2022/08/21 11:04:31;;;;;;;3.43;2.70;;;;;;;31.07;38.77;94380.00;5036431;28;20223;-67
2022/08/21 11:07:26;;;;;;;1.30;0.77;;;;;;;31.77;38.76;94384.06;5037795;28;20188;-66
2022/08/21 11:10:10;;;;;;;1.10;0.93;;;;;;;31.17;38.46;94381.13;5069051;28;20203;-65
2022/08/21 11:12:59;;;;;;;3.00;0.63;;;;;;;31.01;39.00;94383.53;5055609;28;20291;-65
2022/08/21 11:15:26;;;;;;;1.07;0.97;;;;;;;31.12;38.28;94374.16;5033784;28;20232;-67
2022/08/21 11:18:09;;;;;;;0.50;0.50;;;;;;;31.91;37.10;94370.44;5028256;28;20189;-66
2022/08/21 11:20:59;;;;;;;0.80;0.43;;;;;;;31.83;36.31;94353.44;5056292;28;20234;-65
2022/08/21 11:23:57;;;;;;;0.47;0.47;;;;;;;31.80;37.11;94342.66;5028604;28;20224;-65
2022/08/21 11:26:41;;;;;;;0.73;0.73;;;;;;;32.01;36.66;94358.69;5042726;28;20188;-66
2022/08/21 11:29:13;;;;;;;8.40;1.27;;;;;;;32.27;36.69;94366.16;5066018;28;20218;-65
2022/08/21 11:32:09;;;;;;;0.77;0.70;;;;;;;32.22;38.51;94358.47;5048161;28;20205;-65
2022/08/21 11:35:23;;;;;;;0.70;0.70;;;;;;;32.83;36.19;94353.06;5057603;28;20708;-66
2022/08/21 11:37:56;;;;;;;0.63;0.63;;;;;;;32.66;35.45;94361.03;5046326;28;20196;-64
2022/08/21 11:41:08;;;;;;;0.57;0.57;;;;;;;33.07;35.91;94363.56;5038169;28;20232;-65
2022/08/21 11:43:42;;;;;;;0.73;0.73;;;;;;;32.16;35.01;94354.66;5027576;28;20239;-67
2022/08/21 11:46:18;;;;;;;1.90;1.07;;;;;;;31.53;35.55;94350.63;5026998;28;20236;-66
2022/08/21 11:49:22;;;;;;;0.77;0.77;;;;;;;32.58;35.43;94362.31;5033583;28;20219;-64
2022/08/21 11:52:16;;;;;;;0.60;0.60;;;;;;;33.05;33.98;94351.59;5027854;28;20610;-65
2022/08/21 11:55:15;;;;;;;1.07;1.03;;;;;;;32.44;34.58;94353.59;5027941;28;20200;-66
2022/08/21 11:57:59;;;;;;;1.97;0.87;;;;;;;31.82;34.90;94356.56;5037123;28;20285;-65
2022/08/21 12:00:33;;;;;;;0.23;0.23;;;;;;;32.05;34.88;94353.25;5047551;28;20187;-65
2022/08/21 12:03:14;;;;;;;1.40;0.47;;;;;;;31.80;35.56;94353.50;5058390;28;20199;-65